Time;durP1;ratioP1;P1;durP2;ratioP2;P2;SDS_P1;SDS_P2;PMS_P1;PMS_P2;Temp;Humidity;BMP_temperature;BMP_pressure;BME280_temperature;BME280_humidity;BME280_pressure;Samples;Min_cycle;Max_cycle;Signal;HPM_P1;HPM_P2
2021/12/22 00:01:16;;;;;;;48.90;20.60;;;;;;;5.15;100.00;102479.31;5095994;28;20039;-60
2021/12/22 00:03:46;;;;;;;44.93;21.77;;;;;;;4.98;100.00;102476.16;5096184;28;20055;-58
2021/12/22 00:06:13;;;;;;;47.60;20.10;;;;;;;4.99;100.00;102477.84;5078203;28;20040;-58
2021/12/22 00:08:39;;;;;;;45.58;20.20;;;;;;;5.01;100.00;102481.22;5095866;28;20115;-60
2021/12/22 00:11:04;;;;;;;45.83;18.37;;;;;;;5.02;100.00;102469.63;5077986;28;20147;-60
2021/12/22 00:13:30;;;;;;;50.50;20.17;;;;;;;4.92;100.00;102465.16;5096290;28;20028;-59
2021/12/22 00:15:55;;;;;;;46.67;20.73;;;;;;;4.95;100.00;102464.91;5095831;28;20028;-55
2021/12/22 00:18:21;;;;;;;49.63;21.55;;;;;;;4.97;100.00;102474.47;5096245;28;20023;-60
2021/12/22 00:20:47;;;;;;;44.00;20.48;;;;;;;4.92;100.00;102471.31;5095937;28;20046;-59
2021/12/22 00:23:13;;;;;;;40.35;19.67;;;;;;;4.96;100.00;102472.78;5095551;28;20036;-64
2021/12/22 00:25:38;;;;;;;44.08;17.95;;;;;;;4.93;100.00;102480.09;5095939;28;20054;-60
2021/12/22 00:28:04;;;;;;;43.10;17.97;;;;;;;4.78;100.00;102479.47;5077600;28;20081;-60
2021/12/22 00:30:30;;;;;;;48.63;20.60;;;;;;;4.77;100.00;102472.47;5095949;28;20264;-59
2021/12/22 00:33:02;;;;;;;49.80;19.07;;;;;;;4.93;100.00;102482.75;5095511;28;20039;-59
2021/12/22 00:35:37;;;;;;;49.22;19.95;;;;;;;4.91;100.00;102485.53;5095907;28;20036;-58
2021/12/22 00:38:02;;;;;;;45.60;19.63;;;;;;;4.86;100.00;102482.41;5095654;28;20032;-60
2021/12/22 00:40:28;;;;;;;53.80;20.25;;;;;;;4.83;100.00;102485.25;5095315;28;20063;-57
2021/12/22 00:42:53;;;;;;;47.38;18.33;;;;;;;4.86;100.00;102482.41;5077372;28;20085;-60
2021/12/22 00:45:23;;;;;;;47.70;20.50;;;;;;;4.71;100.00;102485.25;5095475;28;20137;-60
2021/12/22 00:47:49;;;;;;;51.00;20.20;;;;;;;4.69;100.00;102481.88;5077935;28;20085;-60
2021/12/22 00:50:15;;;;;;;48.20;19.98;;;;;;;4.73;100.00;102478.03;5095149;28;20035;-58
2021/12/22 00:52:40;;;;;;;45.92;21.85;;;;;;;4.73;100.00;102477.19;5095078;28;20039;-57
2021/12/22 00:55:07;;;;;;;55.55;20.90;;;;;;;4.72;100.00;102472.81;5095556;28;20415;-58
2021/12/22 00:57:33;;;;;;;50.13;19.95;;;;;;;4.73;100.00;102477.19;5076867;28;20082;-59
2021/12/22 00:59:59;;;;;;;49.60;21.50;;;;;;;4.62;100.00;102475.34;5077278;28;20051;-58
2021/12/22 01:02:25;;;;;;;58.80;20.20;;;;;;;4.61;100.00;102468.34;5094901;28;20032;-62
2021/12/22 01:04:51;;;;;;;51.10;20.38;;;;;;;4.59;100.00;102468.47;5095066;28;20024;-60
2021/12/22 01:07:16;;;;;;;59.43;20.93;;;;;;;4.67;100.00;102470.53;5077314;28;20093;-59
2021/12/22 01:09:42;;;;;;;54.40;21.15;;;;;;;4.66;100.00;102476.81;5076955;28;20067;-60
2021/12/22 01:12:08;;;;;;;46.78;21.00;;;;;;;4.56;100.00;102470.50;5094868;28;20036;-60
2021/12/22 01:14:35;;;;;;;36.53;16.08;;;;;;;4.54;100.00;102470.63;5076903;28;20036;-58
2021/12/22 01:17:02;;;;;;;52.47;20.30;;;;;;;4.56;100.00;102470.50;5076730;28;20411;-60
2021/12/22 01:19:47;;;;;;;56.22;20.85;;;;;;;4.55;100.00;102474.09;5093964;28;20131;-60
2021/12/22 01:22:26;;;;;;;46.67;21.30;;;;;;;4.56;100.00;102470.50;5094631;28;20530;-60
2021/12/22 01:25:25;;;;;;;54.78;19.77;;;;;;;4.49;100.00;102462.16;5095015;28;20032;-60
2021/12/22 01:27:45;;;;;;;58.17;22.58;;;;;;;4.43;100.00;102466.13;5092020;28;20060;-59
2021/12/22 01:30:28;;;;;;;52.50;21.63;;;;;;;4.39;100.00;102469.13;5094668;28;20035;-59
2021/12/22 01:32:57;;;;;;;53.72;20.83;;;;;;;4.37;100.00;102468.38;5094878;28;20043;-59
2021/12/22 01:35:26;;;;;;;50.47;19.35;;;;;;;4.49;100.00;102464.81;5096955;28;20074;-57
2021/12/22 01:37:52;;;;;;;51.92;21.88;;;;;;;4.42;100.00;102463.59;5096894;28;20062;-60
2021/12/22 01:40:19;;;;;;;49.30;20.88;;;;;;;4.48;100.00;102467.59;5095270;28;20040;-60
2021/12/22 01:42:47;;;;;;;70.70;21.17;;;;;;;4.35;100.00;102468.47;5095630;28;20081;-59
2021/12/22 01:51:05;;;;;;;51.40;22.02;;;;;;;4.34;100.00;102458.84;5094029;28;20185;-61
2021/12/22 01:53:38;;;;;;;57.20;21.45;;;;;;;4.39;100.00;102459.38;5075836;28;20055;-60
2021/12/22 01:56:20;;;;;;;58.10;21.83;;;;;;;4.28;100.00;102468.13;5095325;28;20058;-59
2021/12/22 01:58:48;;;;;;;52.25;21.10;;;;;;;4.26;100.00;102467.34;5095044;28;20122;-60
2021/12/22 02:01:15;;;;;;;59.55;22.50;;;;;;;4.32;100.00;102476.66;5094240;28;20020;-60
2021/12/22 02:03:43;;;;;;;55.92;20.73;;;;;;;4.28;100.00;102469.91;5093925;28;20036;-61
2021/12/22 02:06:09;;;;;;;57.38;22.27;;;;;;;4.15;100.00;102470.81;5093778;28;20032;-59
2021/12/22 02:08:39;;;;;;;62.17;23.52;;;;;;;4.28;100.00;102468.13;5075753;28;20377;-61
2021/12/22 02:11:05;;;;;;;53.63;22.75;;;;;;;4.25;100.00;102462.19;5094240;28;20057;-61
2021/12/22 02:13:36;;;;;;;58.58;21.52;;;;;;;4.16;100.00;102464.56;5093928;28;20411;-58
2021/12/22 02:16:07;;;;;;;57.35;21.60;;;;;;;4.18;100.00;102453.03;5093978;28;20036;-60
2021/12/22 02:18:35;;;;;;;51.10;19.40;;;;;;;4.22;100.00;102454.47;5094062;28;20043;-60
2021/12/22 02:21:01;;;;;;;54.72;20.20;;;;;;;4.13;100.00;102459.47;5075657;28;20114;-60
2021/12/22 02:23:27;;;;;;;56.78;21.35;;;;;;;4.02;100.00;102459.44;5075225;28;20525;-59
2021/12/22 02:25:57;;;;;;;52.30;19.52;;;;;;;4.07;100.00;102445.88;5093496;28;20103;-61
2021/12/22 02:28:28;;;;;;;54.45;20.58;;;;;;;4.07;100.00;102456.47;5093326;28;20089;-60
2021/12/22 02:30:54;;;;;;;58.72;20.83;;;;;;;4.03;100.00;102453.19;5093093;28;20102;-60
2021/12/22 02:33:34;;;;;;;59.35;22.83;;;;;;;3.99;100.00;102451.72;5058782;28;20039;-57
2021/12/22 02:38:29;;;;;;;54.40;21.42;;;;;;;4.00;100.00;102448.94;5093231;28;20107;-59
2021/12/22 02:40:55;;;;;;;52.17;18.08;;;;;;;3.91;100.00;102444.34;5075571;28;20028;-59
2021/12/22 02:43:23;;;;;;;52.53;20.00;;;;;;;3.85;100.00;102456.19;5093151;28;20378;-55
2021/12/22 02:45:49;;;;;;;54.85;20.70;;;;;;;3.95;100.00;102461.69;5075306;28;20036;-60
2021/12/22 02:48:16;;;;;;;54.25;23.60;;;;;;;3.88;100.00;102461.28;5093709;28;20043;-60
2021/12/22 02:50:41;;;;;;;;;;;;;;;3.87;100.00;102467.53;5076151;28;20074;-61
2021/12/22 02:53:13;;;;;;;52.03;20.03;;;;;;;3.85;100.00;102466.78;5074981;28;19999;-59
2021/12/22 02:55:45;;;;;;;58.35;22.45;;;;;;;3.83;100.00;102471.34;5093449;28;20461;-59
2021/12/22 02:58:20;;;;;;;52.33;21.95;;;;;;;3.85;100.00;102472.09;5093418;28;20036;-59
2021/12/22 03:03:30;;;;;;;55.15;21.10;;;;;;;3.70;100.00;102471.38;5092914;28;20107;-60
2021/12/22 03:05:58;;;;;;;50.42;19.58;;;;;;;3.74;100.00;102469.38;5093654;28;20047;-58
2021/12/22 03:08:23;;;;;;;56.00;20.73;;;;;;;3.80;100.00;102471.56;5093301;28;20036;-60
2021/12/22 03:10:53;;;;;;;43.70;16.73;;;;;;;3.75;100.00;102473.72;5058280;28;20044;-59
2021/12/22 03:13:20;;;;;;;58.30;19.92;;;;;;;3.69;100.00;102480.28;5093221;28;20035;-59
2021/12/22 03:15:46;;;;;;;49.08;19.65;;;;;;;3.72;100.00;102476.59;5074953;28;20036;-60
2021/12/22 03:18:11;;;;;;;58.90;19.97;;;;;;;3.67;100.00;102474.25;5093936;28;20028;-59
2021/12/22 03:20:37;;;;;;;42.63;16.97;;;;;;;3.69;100.00;102471.47;5092945;28;20701;-60
2021/12/22 03:23:04;;;;;;;53.28;16.88;;;;;;;3.68;100.00;102470.66;5075029;28;20039;-57
2021/12/22 03:25:29;;;;;;;;;;;;;;;3.62;100.00;102479.03;5093586;28;20032;-59
2021/12/22 03:27:57;;;;;;;47.20;18.13;;;;;;;3.55;100.00;102470.69;5093692;28;19912;-59
2021/12/22 03:30:25;;;;;;;61.67;21.63;;;;;;;3.58;100.00;102474.94;5092838;28;20146;-59
2021/12/22 03:32:50;;;;;;;52.10;19.77;;;;;;;3.62;100.00;102470.25;5092928;28;20074;-59
2021/12/22 03:35:19;;;;;;;53.58;19.25;;;;;;;3.52;100.00;102465.63;5074994;28;20040;-60
2021/12/22 03:37:48;;;;;;;46.80;19.05;;;;;;;3.56;100.00;102471.50;5092942;28;20466;-60
2021/12/22 03:40:14;;;;;;;55.85;19.27;;;;;;;3.50;100.00;102472.81;5092802;28;20060;-59
2021/12/22 03:42:39;;;;;;;49.10;19.63;;;;;;;3.44;100.00;102463.50;5094754;28;20499;-59
2021/12/22 03:45:05;;;;;;;43.13;15.50;;;;;;;3.41;100.00;102466.38;5096753;28;20445;-60
2021/12/22 03:47:31;;;;;;;49.72;19.30;;;;;;;3.42;100.00;102464.56;5096341;28;20044;-60
2021/12/22 03:49:56;;;;;;;58.93;20.73;;;;;;;3.47;100.00;102459.81;5096852;28;20039;-56
2021/12/22 03:52:22;;;;;;;48.80;19.83;;;;;;;3.49;100.00;102449.09;5096598;28;20039;-59
2021/12/22 03:54:47;;;;;;;49.57;19.17;;;;;;;3.58;100.00;102457.22;5077884;28;20059;-60
2021/12/22 03:57:13;;;;;;;48.53;20.13;;;;;;;3.48;100.00;102458.84;5096496;28;20306;-60
2021/12/22 03:59:38;;;;;;;50.22;19.90;;;;;;;3.35;100.00;102458.00;5096679;28;20063;-58
2021/12/22 04:02:04;;;;;;;46.27;18.33;;;;;;;3.40;100.00;102454.09;5078192;28;20039;-60
2021/12/22 04:04:30;;;;;;;37.60;15.48;;;;;;;3.50;100.00;102458.72;5078062;28;20721;-58
2021/12/22 04:06:55;;;;;;;46.78;19.52;;;;;;;3.47;100.00;102459.81;5096529;28;20028;-60
2021/12/22 04:09:27;;;;;;;52.92;19.05;;;;;;;3.30;100.00;102459.19;5095979;28;20036;-61
2021/12/22 04:11:53;;;;;;;56.33;18.38;;;;;;;3.38;100.00;102456.00;5061973;28;20044;-59
2021/12/22 04:14:19;;;;;;;;;;;;;;;3.36;100.00;102471.16;5096452;28;20020;-59
2021/12/22 04:16:44;;;;;;;53.93;18.73;;;;;;;3.36;100.00;102460.56;5096345;28;20314;-58
2021/12/22 04:19:10;;;;;;;53.33;19.07;;;;;;;3.23;100.00;102460.59;5096052;28;20053;-60
2021/12/22 04:21:35;;;;;;;49.00;19.10;;;;;;;3.22;100.00;102460.69;5095952;28;20268;-59
2021/12/22 04:24:02;;;;;;;54.90;20.88;;;;;;;3.15;100.00;102452.31;5095495;28;20522;-59
2021/12/22 04:26:30;;;;;;;55.42;19.48;;;;;;;3.10;100.00;102449.16;5077426;28;20044;-60
2021/12/22 04:28:56;;;;;;;49.65;20.42;;;;;;;3.05;100.00;102446.00;5077916;28;20085;-60
2021/12/22 04:31:22;;;;;;;58.10;18.33;;;;;;;3.14;100.00;102440.91;5095448;28;20036;-59
2021/12/22 04:33:47;;;;;;;51.47;19.70;;;;;;;3.08;100.00;102429.91;5095404;28;20393;-60
2021/12/22 04:36:13;;;;;;;56.42;20.77;;;;;;;3.08;100.00;102432.56;5077417;28;20376;-58
2021/12/22 04:38:38;;;;;;;60.47;21.17;;;;;;;2.90;100.00;102427.56;5095284;28;20024;-60
2021/12/22 04:41:04;;;;;;;45.63;20.07;;;;;;;3.08;100.00;102429.91;5095353;28;20307;-58
2021/12/22 04:43:29;;;;;;;67.00;21.58;;;;;;;2.94;100.00;102415.84;5095195;28;20054;-56
2021/12/22 04:45:55;;;;;;;61.75;20.52;;;;;;;3.03;100.00;102418.81;5077298;28;20370;-59
2021/12/22 04:48:21;;;;;;;59.28;21.65;;;;;;;3.00;100.00;102422.50;5095400;28;20024;-60
2021/12/22 04:50:46;;;;;;;56.08;19.25;;;;;;;2.96;100.00;102416.56;5095804;28;20063;-60
2021/12/22 04:53:18;;;;;;;38.17;16.53;;;;;;;2.93;100.00;102411.50;5076795;28;20052;-60
2021/12/22 04:55:43;;;;;;;61.47;20.35;;;;;;;3.03;100.00;102403.78;5077643;28;20028;-60
2021/12/22 04:58:09;;;;;;;41.23;15.83;;;;;;;3.03;100.00;102405.59;5060579;28;20054;-60
2021/12/22 05:00:37;;;;;;;53.72;19.92;;;;;;;2.81;100.00;102401.78;5060466;28;20078;-60
2021/12/22 05:03:03;;;;;;;59.22;21.70;;;;;;;2.99;100.00;102404.97;5094716;28;20423;-59
2021/12/22 05:05:29;;;;;;;59.75;21.00;;;;;;;2.83;100.00;102405.19;5095097;28;20043;-57
2021/12/22 05:07:56;;;;;;;62.00;20.27;;;;;;;2.87;100.00;102406.66;5094926;28;20024;-58
2021/12/22 05:10:22;;;;;;;62.17;20.42;;;;;;;2.76;100.00;102403.88;5095466;28;20031;-60
2021/12/22 05:12:48;;;;;;;58.78;20.73;;;;;;;2.84;100.00;102412.16;5094615;28;20065;-59
2021/12/22 05:15:23;;;;;;;55.97;20.42;;;;;;;2.67;100.00;102408.88;5059990;28;20119;-60
2021/12/22 05:20:16;;;;;;;59.95;21.75;;;;;;;2.55;100.00;102421.09;5094456;28;20050;-60
2021/12/22 05:22:43;;;;;;;62.85;20.92;;;;;;;2.43;100.00;102416.66;5076675;28;20063;-59
2021/12/22 05:25:10;;;;;;;67.57;21.35;;;;;;;2.34;100.00;102410.19;5076548;28;20102;-60
2021/12/22 05:27:37;;;;;;;63.90;22.08;;;;;;;2.14;100.00;102409.72;5076545;28;20051;-60
2021/12/22 05:30:06;;;;;;;67.03;21.90;;;;;;;2.07;100.00;102408.41;5094665;28;20121;-60
2021/12/22 05:32:32;;;;;;;65.50;20.63;;;;;;;2.05;100.00;102402.38;5076283;28;20043;-59
2021/12/22 05:34:58;;;;;;;;;;;;;;;2.14;100.00;102411.50;5076658;28;20070;-60
2021/12/22 05:37:24;;;;;;;61.00;19.80;;;;;;;2.05;100.00;102412.94;5059937;28;19904;-57
2021/12/22 05:39:50;;;;;;;60.70;21.92;;;;;;;2.06;100.00;102406.72;5076910;28;20102;-60
2021/12/22 05:42:16;;;;;;;62.78;21.25;;;;;;;2.06;100.00;102411.16;5094156;28;20606;-58
2021/12/22 05:44:42;;;;;;;56.13;21.35;;;;;;;2.26;100.00;102408.06;5094198;28;20114;-60
2021/12/22 05:47:08;;;;;;;71.00;22.00;;;;;;;2.26;100.00;102407.19;5094235;28;20385;-59
2021/12/22 05:49:34;;;;;;;48.05;17.10;;;;;;;1.96;100.00;102397.72;5094362;28;20449;-59
2021/12/22 05:51:59;;;;;;;47.60;18.85;;;;;;;2.08;100.00;102394.28;5094575;28;20043;-56
2021/12/22 05:54:25;;;;;;;60.97;22.20;;;;;;;2.48;100.00;102396.06;5094592;28;20048;-60
2021/12/22 05:56:50;;;;;;;53.90;21.43;;;;;;;2.43;100.00;102404.28;5094253;28;20091;-59
2021/12/22 05:59:16;;;;;;;62.07;21.03;;;;;;;2.54;100.00;102406.22;5093837;28;20123;-60
2021/12/22 06:01:41;;;;;;;58.80;19.13;;;;;;;2.56;100.00;102403.47;5076785;28;20077;-57
2021/12/22 06:04:07;;;;;;;54.37;19.63;;;;;;;2.59;100.00;102411.19;5093909;28;20703;-60
2021/12/22 06:06:32;;;;;;;63.13;21.80;;;;;;;2.57;100.00;102402.53;5075707;28;20093;-60
2021/12/22 06:08:58;;;;;;;45.77;17.53;;;;;;;2.50;100.00;102403.88;5093796;28;20032;-60
2021/12/22 06:11:24;;;;;;;62.58;21.45;;;;;;;2.43;100.00;102403.47;5094040;28;20303;-60
2021/12/22 06:13:49;;;;;;;50.70;19.98;;;;;;;2.35;100.00;102403.09;5093714;28;20068;-60
2021/12/22 06:16:15;;;;;;;58.00;20.63;;;;;;;2.39;100.00;102397.53;5093883;28;20036;-59
2021/12/22 06:18:45;;;;;;;54.85;19.17;;;;;;;2.46;100.00;102397.09;5093799;28;20065;-60
2021/12/22 06:21:13;;;;;;;45.25;19.40;;;;;;;2.58;100.00;102398.94;5094051;28;20044;-61
2021/12/22 06:23:39;;;;;;;54.65;19.42;;;;;;;2.53;100.00;102406.28;5076290;28;20024;-58
2021/12/22 06:26:05;;;;;;;54.25;19.88;;;;;;;2.47;100.00;102412.00;5093748;28;20346;-58
2021/12/22 06:28:31;;;;;;;59.95;21.25;;;;;;;2.48;100.00;102406.63;5094020;28;20043;-60
2021/12/22 06:30:57;;;;;;;51.92;17.88;;;;;;;2.53;100.00;102411.56;5093499;28;20032;-58
2021/12/22 06:33:22;;;;;;;45.70;16.33;;;;;;;2.53;100.00;102408.94;5075610;28;20035;-59
2021/12/22 06:35:48;;;;;;;50.83;18.57;;;;;;;2.50;100.00;102409.16;5093944;28;20454;-61
2021/12/22 06:38:15;;;;;;;63.78;22.35;;;;;;;2.56;100.00;102408.75;5076177;28;20702;-60
2021/12/22 06:40:41;;;;;;;56.22;18.15;;;;;;;2.41;100.00;102410.63;5093867;28;20119;-57
2021/12/22 06:43:07;;;;;;;61.05;20.25;;;;;;;2.41;100.00;102405.34;5093454;28;20024;-59
2021/12/22 06:45:33;;;;;;;52.47;16.73;;;;;;;2.17;100.00;102406.00;5093117;28;20096;-60
2021/12/22 06:47:58;;;;;;;50.60;20.25;;;;;;;2.28;100.00;102400.88;5058467;28;20032;-57
2021/12/22 06:50:24;;;;;;;60.55;20.65;;;;;;;2.49;100.00;102408.31;5076015;28;20103;-60
2021/12/22 06:52:50;;;;;;;56.63;19.92;;;;;;;2.40;100.00;102416.84;5093096;28;20450;-60
2021/12/22 06:55:16;;;;;;;54.13;19.20;;;;;;;2.56;100.00;102414.03;5093410;28;20335;-60
2021/12/22 06:57:42;;;;;;;;;;;;;;;2.21;100.00;102414.59;5093264;28;20047;-58
2021/12/22 07:00:10;;;;;;;57.43;19.57;;;;;;;2.18;100.00;102412.97;5075083;28;19916;-59
2021/12/22 07:02:37;;;;;;;48.30;18.35;;;;;;;2.15;100.00;102408.78;5093010;28;20103;-59
2021/12/22 07:05:05;;;;;;;52.70;19.73;;;;;;;2.21;100.00;102410.16;5092797;28;20067;-58
2021/12/22 07:07:31;;;;;;;61.38;20.38;;;;;;;1.69;100.00;102411.75;5093300;28;20024;-58
2021/12/22 07:09:57;;;;;;;41.00;14.50;;;;;;;2.05;100.00;102410.31;5075018;28;20497;-57
2021/12/22 07:12:23;;;;;;;54.90;20.70;;;;;;;2.06;100.00;102406.72;5093220;28;20489;-59
2021/12/22 07:14:49;;;;;;;47.25;19.52;;;;;;;2.25;100.00;102421.34;5093117;28;20044;-58
2021/12/22 07:17:14;;;;;;;53.72;20.05;;;;;;;2.24;100.00;102409.97;5077259;28;20028;-60
2021/12/22 07:19:39;;;;;;;40.70;14.65;;;;;;;2.09;100.00;102406.53;5100413;28;20039;-60
2021/12/22 07:22:06;;;;;;;52.63;18.23;;;;;;;2.00;100.00;102407.13;5099773;28;20035;-60
2021/12/22 07:24:32;;;;;;;51.47;18.70;;;;;;;2.36;100.00;102418.00;5097042;28;20031;-56
2021/12/22 07:26:57;;;;;;;50.55;18.70;;;;;;;2.38;100.00;102414.31;5097328;28;20066;-60
2021/12/22 07:29:23;;;;;;;51.72;18.77;;;;;;;2.17;100.00;102413.09;5096910;28;20067;-60
2021/12/22 07:31:48;;;;;;;47.10;18.03;;;;;;;2.28;100.00;102411.44;5096860;28;20530;-59
2021/12/22 07:34:29;;;;;;;57.42;19.13;;;;;;;2.28;100.00;102410.59;5062904;28;20098;-60
2021/12/22 07:37:00;;;;;;;52.35;17.25;;;;;;;2.39;100.00;102413.38;5096855;28;20035;-60
2021/12/22 07:39:25;;;;;;;46.65;17.65;;;;;;;2.13;100.00;102404.53;5078883;28;20028;-60
2021/12/22 07:41:51;;;;;;;48.27;19.17;;;;;;;2.11;100.00;102402.00;5096943;28;20036;-61
2021/12/22 07:44:17;;;;;;;;;;;;;;;2.42;100.00;102396.47;5079235;28;20114;-61
2021/12/22 07:46:43;;;;;;;47.63;19.00;;;;;;;2.24;100.00;102387.97;5096254;28;20357;-60
2021/12/22 07:49:08;;;;;;;44.70;17.27;;;;;;;2.27;100.00;102386.00;5078072;28;20032;-60
2021/12/22 07:51:34;;;;;;;47.90;18.77;;;;;;;2.37;100.00;102380.94;5096719;28;20032;-59
2021/12/22 07:54:00;;;;;;;32.53;15.13;;;;;;;2.52;100.00;102396.69;5096540;28;20044;-59
2021/12/22 07:56:26;;;;;;;46.15;16.67;;;;;;;2.51;100.00;102397.63;5097065;28;20304;-60
2021/12/22 07:58:53;;;;;;;59.53;20.48;;;;;;;2.35;100.00;102392.53;5096193;28;20457;-61
2021/12/22 08:01:20;;;;;;;47.83;17.70;;;;;;;2.37;100.00;102390.66;5096697;28;20038;-60
2021/12/22 08:03:45;;;;;;;56.40;19.33;;;;;;;2.33;100.00;102386.53;5061753;28;20032;-60
2021/12/22 08:06:12;;;;;;;37.00;15.55;;;;;;;2.13;100.00;102381.63;5096444;28;20426;-59
2021/12/22 08:08:38;;;;;;;;;;;;;;;2.19;100.00;102396.22;5096951;28;20047;-60
2021/12/22 08:11:03;;;;;;;47.93;17.30;;;;;;;2.20;100.00;102394.41;5095653;28;19904;-61
2021/12/22 08:13:29;;;;;;;41.17;17.15;;;;;;;2.36;100.00;102387.19;5096079;28;20032;-60
2021/12/22 08:15:54;;;;;;;40.03;13.63;;;;;;;2.37;100.00;102393.28;5078063;28;20035;-60
2021/12/22 08:18:20;;;;;;;32.90;13.07;;;;;;;2.46;100.00;102397.97;5101359;28;20032;-60
2021/12/22 08:20:46;;;;;;;46.25;19.00;;;;;;;2.45;100.00;102398.91;5098529;28;20032;-60
2021/12/22 08:23:12;;;;;;;50.38;18.77;;;;;;;2.33;100.00;102389.16;5095886;28;20418;-60
2021/12/22 08:25:38;;;;;;;42.70;17.02;;;;;;;2.26;100.00;102391.34;5095654;28;20058;-61
2021/12/22 08:28:05;;;;;;;41.78;17.48;;;;;;;2.13;100.00;102393.97;5095435;28;20077;-59
2021/12/22 08:30:31;;;;;;;40.83;16.23;;;;;;;2.03;100.00;102393.72;5095614;28;20028;-58
2021/12/22 08:32:59;;;;;;;49.58;18.88;;;;;;;2.22;100.00;102395.16;5077722;28;20043;-61
2021/12/22 08:35:26;;;;;;;40.47;16.40;;;;;;;2.31;100.00;102399.84;5096937;28;20447;-61
2021/12/22 08:40:36;;;;;;;45.97;17.67;;;;;;;2.40;100.00;102385.16;5096527;28;20046;-60
2021/12/22 08:43:02;;;;;;;48.15;18.77;;;;;;;2.49;100.00;102381.03;5101471;28;20024;-60
2021/12/22 08:45:27;;;;;;;42.30;17.20;;;;;;;2.38;100.00;102385.28;5111343;28;20036;-60
2021/12/22 08:47:53;;;;;;;50.10;18.75;;;;;;;2.34;100.00;102382.94;5094049;28;20070;-60
2021/12/22 08:50:20;;;;;;;45.30;19.77;;;;;;;2.60;100.00;102381.19;5111977;28;20032;-61
2021/12/22 08:52:46;;;;;;;;;;;;;;;2.52;100.00;102379.06;5101862;28;20097;-60
2021/12/22 08:55:12;;;;;;;40.67;16.33;;;;;;;2.87;100.00;102386.34;5096489;28;20011;-59
2021/12/22 08:57:38;;;;;;;51.65;16.95;;;;;;;2.72;100.00;102390.06;5077634;28;20059;-60
2021/12/22 09:00:05;;;;;;;;;;;;;;;2.67;100.00;102393.00;5083288;28;20046;-60
2021/12/22 09:02:31;;;;;;;40.22;18.27;;;;;;;2.74;100.00;102388.16;5094205;28;19908;-60
2021/12/22 09:04:56;;;;;;;34.40;16.63;;;;;;;2.95;100.00;102388.47;5092003;28;20047;-58
2021/12/22 09:07:22;;;;;;;42.47;16.37;;;;;;;3.07;100.00;102385.94;5102356;28;20028;-59
2021/12/22 09:09:47;;;;;;;41.17;16.38;;;;;;;3.10;100.00;102381.25;5097718;28;20268;-60
2021/12/22 09:12:14;;;;;;;38.13;15.23;;;;;;;2.77;100.00;102390.59;5095122;28;20086;-59
2021/12/22 09:14:40;;;;;;;33.90;15.13;;;;;;;3.03;100.00;102384.47;5095827;28;20385;-60
2021/12/22 09:17:06;;;;;;;37.78;14.80;;;;;;;3.49;100.00;102390.91;5095237;28;20024;-61
2021/12/22 09:19:31;;;;;;;28.70;14.53;;;;;;;3.53;100.00;102395.03;5094815;28;20107;-60
2021/12/22 09:21:57;;;;;;;36.87;15.50;;;;;;;3.71;100.00;102392.84;5095242;28;20471;-57
2021/12/22 09:24:22;;;;;;;38.20;14.40;;;;;;;3.78;100.00;102394.09;5094760;28;20685;-60
2021/12/22 09:26:48;;;;;;;34.53;15.10;;;;;;;3.91;100.00;102395.81;5095063;28;20465;-60
2021/12/22 09:29:13;;;;;;;36.57;14.93;;;;;;;3.90;100.00;102392.34;5094565;28;20071;-60
2021/12/22 09:31:40;;;;;;;27.95;14.38;;;;;;;3.63;100.00;102382.84;5094521;28;20059;-60
2021/12/22 09:34:06;;;;;;;30.50;13.00;;;;;;;4.04;100.00;102388.69;5076252;28;20044;-60
2021/12/22 09:36:32;;;;;;;31.88;14.05;;;;;;;5.26;100.00;102381.16;5094209;28;20032;-59
2021/12/22 09:38:58;;;;;;;33.25;13.63;;;;;;;5.82;100.00;102382.00;5094151;28;20103;-61
2021/12/22 09:41:23;;;;;;;31.00;13.05;;;;;;;5.97;100.00;102389.66;5093781;28;20511;-59
2021/12/22 09:43:52;;;;;;;26.38;12.48;;;;;;;5.98;100.00;102389.56;5094377;28;20040;-60
2021/12/22 09:46:19;;;;;;;32.20;13.38;;;;;;;5.86;100.00;102386.09;5094468;28;20036;-60
2021/12/22 09:53:40;;;;;;;22.60;12.30;;;;;;;5.44;100.00;102392.13;5093963;28;20048;-60
2021/12/22 09:56:07;;;;;;;22.48;11.02;;;;;;;5.76;100.00;102394.94;5094076;28;20059;-60
2021/12/22 09:58:32;;;;;;;32.03;13.88;;;;;;;6.11;100.00;102394.72;5076637;28;20040;-59
2021/12/22 10:00:58;;;;;;;30.52;12.65;;;;;;;6.45;100.00;102399.84;5094400;28;20389;-60
2021/12/22 10:03:25;;;;;;;25.05;11.25;;;;;;;6.65;100.00;102392.00;5093857;28;20027;-60
2021/12/22 10:05:52;;;;;;;25.33;12.05;;;;;;;6.64;100.00;102400.13;5094336;28;20078;-61
2021/12/22 10:08:20;;;;;;;31.53;11.60;;;;;;;6.88;100.00;102391.84;5076055;28;20185;-61
2021/12/22 10:10:50;;;;;;;26.15;11.07;;;;;;;6.54;100.00;102387.59;5093857;28;20275;-60
2021/12/22 10:13:23;;;;;;;27.35;10.98;;;;;;;6.29;100.00;102389.69;5094012;28;20043;-60
2021/12/22 10:15:48;;;;;;;28.73;12.18;;;;;;;6.34;100.00;102389.31;5093940;28;20077;-60
2021/12/22 10:18:17;;;;;;;19.92;11.27;;;;;;;6.39;100.00;102384.44;5093659;28;20419;-60
2021/12/22 10:20:45;;;;;;;25.15;10.98;;;;;;;6.51;100.00;102381.72;5075769;28;20047;-60
2021/12/22 10:23:23;;;;;;;32.75;11.98;;;;;;;6.59;100.00;102385.41;5094336;28;20028;-60
2021/12/22 10:26:00;;;;;;;24.38;11.00;;;;;;;6.92;95.93;102387.97;5093860;28;20028;-60
2021/12/22 10:28:28;;;;;;;19.52;10.13;;;;;;;6.84;97.83;102371.81;5093672;28;20028;-61
2021/12/22 10:30:59;;;;;;;23.40;11.02;;;;;;;7.64;92.47;102377.25;5093399;28;20537;-59
2021/12/22 10:33:28;;;;;;;24.58;10.30;;;;;;;7.83;87.00;102376.41;5093800;28;20119;-60
2021/12/22 10:35:56;;;;;;;28.25;10.32;;;;;;;8.50;79.53;102375.72;5075635;28;20020;-61
2021/12/22 10:38:24;;;;;;;22.00;10.48;;;;;;;9.59;72.09;102371.56;5093390;28;20039;-60
2021/12/22 10:40:53;;;;;;;25.63;11.02;;;;;;;10.35;65.55;102367.72;5093999;28;20027;-63
2021/12/22 10:43:28;;;;;;;23.33;10.48;;;;;;;10.87;61.57;102372.25;5093773;28;20036;-59
2021/12/22 10:46:00;;;;;;;22.50;9.70;;;;;;;11.29;60.02;102373.25;5075379;28;20057;-60
2021/12/22 10:51:31;;;;;;;24.02;10.93;;;;;;;11.73;54.65;102358.75;5095525;28;20097;-59
2021/12/22 10:53:59;;;;;;;26.08;9.95;;;;;;;12.37;52.75;102360.78;5097507;28;20052;-60
2021/12/22 10:56:36;;;;;;;23.80;10.35;;;;;;;12.65;49.96;102360.41;5097790;28;20454;-60
2021/12/22 10:59:22;;;;;;;24.48;10.07;;;;;;;12.69;49.67;102367.13;5097948;28;20039;-59
2021/12/22 11:01:52;;;;;;;25.65;10.00;;;;;;;12.55;48.67;102363.28;5078720;28;20040;-60
2021/12/22 11:04:23;;;;;;;22.42;10.70;;;;;;;11.85;50.64;102352.09;5097542;28;20036;-60
2021/12/22 11:06:51;;;;;;;22.00;10.55;;;;;;;11.61;52.01;102351.06;5097496;28;20043;-60
2021/12/22 11:09:17;;;;;;;25.10;10.68;;;;;;;11.76;52.48;102340.50;5079077;28;20028;-61
2021/12/22 11:11:43;;;;;;;;;;;;;;;11.40;51.97;102351.50;5097770;28;20027;-59
2021/12/22 11:14:11;;;;;;;24.03;10.27;;;;;;;11.48;53.25;102348.00;5079240;28;20345;-59
2021/12/22 11:17:10;;;;;;;16.98;9.50;;;;;;;11.80;53.13;102340.19;5079415;28;20053;-60
2021/12/22 11:19:48;;;;;;;21.08;10.50;;;;;;;12.61;50.63;102341.13;5096981;28;20481;-61
2021/12/22 11:22:15;;;;;;;18.35;10.45;;;;;;;13.77;47.03;102331.66;5097259;28;20031;-60
2021/12/22 11:24:50;;;;;;;21.35;9.82;;;;;;;14.44;44.11;102338.09;5097067;28;20066;-60
2021/12/22 11:27:26;;;;;;;16.87;8.57;;;;;;;14.06;44.66;102335.44;5097343;28;20470;-58
2021/12/22 11:29:57;;;;;;;15.95;8.50;;;;;;;13.52;45.10;102333.69;5079092;28;20300;-61
2021/12/22 11:32:25;;;;;;;20.83;9.10;;;;;;;13.32;46.51;102318.81;5097675;28;20032;-60
2021/12/22 11:34:53;;;;;;;21.33;9.00;;;;;;;13.96;45.54;102324.09;5097061;28;20256;-61
2021/12/22 11:37:21;;;;;;;19.02;8.68;;;;;;;13.71;45.15;102322.44;5097140;28;20264;-60